Time;durP1;ratioP1;P1;durP2;ratioP2;P2;SDS_P1;SDS_P2;PMS_P1;PMS_P2;Temp;Humidity;BMP_temperature;BMP_pressure;BME280_temperature;BME280_humidity;BME280_pressure;Samples;Min_cycle;Max_cycle;Signal;HPM_P1;HPM_P2
2022/11/06 06:00:33;;;;;;;8.17;7.47;;;5.50;97.20;;;;;;1675096;29;20297;-70
2022/11/06 06:01:24;;;;;;;8.50;7.80;;;5.50;97.20;;;;;;1675084;29;20236;-70
2022/11/06 06:02:16;;;;;;;8.88;8.05;;;5.50;97.20;;;;;;1675068;29;20250;-70
2022/11/06 06:03:06;;;;;;;8.57;7.60;;;5.50;97.20;;;;;;1674987;29;20218;-70
2022/11/06 06:03:58;;;;;;;8.23;7.53;;;5.50;97.20;;;;;;1674606;29;20214;-70
2022/11/06 06:04:49;;;;;;;9.20;8.40;;;5.50;97.20;;;;;;1673807;29;20210;-70
2022/11/06 06:05:40;;;;;;;9.17;8.37;;;5.50;97.20;;;;;;1674990;29;20206;-70
2022/11/06 06:06:32;;;;;;;8.90;8.10;;;5.50;97.20;;;;;;1674839;29;20202;-70
2022/11/06 06:07:23;;;;;;;8.63;7.82;;;5.50;97.20;;;;;;1674960;29;20206;-70
2022/11/06 06:08:14;;;;;;;8.85;7.95;;;5.50;97.20;;;;;;1675134;29;20589;-70
2022/11/06 06:09:06;;;;;;;8.47;7.67;;;5.50;97.20;;;;;;1674813;29;20583;-70
2022/11/06 06:09:57;;;;;;;8.68;7.88;;;5.40;97.20;;;;;;1675008;29;20213;-70
2022/11/06 06:10:49;;;;;;;8.77;8.00;;;5.40;97.20;;;;;;1674888;29;20308;-70
2022/11/06 06:11:39;;;;;;;10.10;8.60;;;5.40;97.20;;;;;;1674937;29;20297;-70
2022/11/06 06:12:31;;;;;;;9.00;8.20;;;5.40;97.20;;;;;;1674958;29;20216;-70
2022/11/06 06:13:22;;;;;;;8.77;7.97;;;5.30;97.20;;;;;;1674997;29;20213;-70
2022/11/06 06:14:13;;;;;;;8.87;8.17;;;5.30;97.20;;;;;;1674777;29;20206;-70
2022/11/06 06:15:05;;;;;;;8.48;7.68;;;5.30;97.20;;;;;;1674886;29;20213;-70
2022/11/06 06:16:01;;;;;;;9.10;8.20;;;5.30;97.20;;;;;;1674920;29;20296;-70
2022/11/06 06:16:51;;;;;;;8.30;7.60;;;5.30;97.20;;;;;;1674889;29;20206;-70
2022/11/06 06:17:44;;;;;;;8.70;7.90;;;5.30;97.20;;;;;;1674973;29;20289;-70
2022/11/06 06:18:35;;;;;;;8.88;7.95;;;5.40;97.20;;;;;;1674738;29;20258;-70
2022/11/06 06:19:27;;;;;;;8.50;7.70;;;5.40;97.20;;;;;;1674964;29;20201;-70
2022/11/06 06:20:18;;;;;;;8.02;7.25;;;5.40;97.20;;;;;;1674831;29;20228;-70
2022/11/06 06:21:10;;;;;;;8.30;7.17;;;5.40;97.20;;;;;;1674780;29;20285;-70
2022/11/06 06:22:01;;;;;;;8.40;7.70;;;5.40;97.20;;;;;;1674886;29;20240;-70
2022/11/06 06:22:54;;;;;;;9.40;8.60;;;5.40;97.20;;;;;;1674979;29;20210;-70
2022/11/06 06:23:44;;;;;;;9.23;8.32;;;5.40;97.20;;;;;;1674955;29;20301;-70
2022/11/06 06:24:36;;;;;;;9.07;8.23;;;5.40;97.20;;;;;;1674692;29;20668;-70
2022/11/06 06:25:28;;;;;;;9.40;8.50;;;5.40;97.20;;;;;;1674756;29;20455;-70
2022/11/06 06:26:20;;;;;;;9.98;9.07;;;5.40;97.20;;;;;;1675026;29;20209;-70
2022/11/06 06:27:10;;;;;;;9.57;8.77;;;5.30;97.20;;;;;;1674790;29;20562;-70
2022/11/06 06:28:02;;;;;;;9.53;8.63;;;5.30;97.20;;;;;;1674973;29;20576;-70
2022/11/06 06:28:53;;;;;;;9.32;8.48;;;5.30;97.20;;;;;;1674875;29;20217;-70
2022/11/06 06:29:44;;;;;;;9.53;8.63;;;5.30;97.20;;;;;;1674902;29;20208;-70
2022/11/06 06:32:25;;;;;;;9.85;8.85;;;5.20;97.20;;;;;;1674718;29;20193;-70
2022/11/06 06:33:15;;;;;;;9.55;8.65;;;5.20;97.20;;;;;;1674891;29;20210;-70
2022/11/06 06:34:08;;;;;;;8.80;7.45;;;5.20;97.20;;;;;;1674893;29;20209;-70
2022/11/06 06:34:59;;;;;;;10.38;8.50;;;5.20;97.20;;;;;;1674651;29;20691;-70
2022/11/06 06:35:50;;;;;;;9.53;8.63;;;5.30;97.20;;;;;;1674833;29;20654;-70
2022/11/06 06:36:41;;;;;;;9.40;8.35;;;5.30;97.20;;;;;;1674795;29;20212;-70
2022/11/06 06:37:33;;;;;;;8.40;7.60;;;5.30;97.20;;;;;;1674880;29;20209;-70
2022/11/06 06:38:24;;;;;;;8.68;7.95;;;5.30;97.20;;;;;;1674907;29;20206;-70
2022/11/06 06:39:16;;;;;;;8.95;8.10;;;5.30;97.20;;;;;;1674817;29;20205;-70
2022/11/06 06:40:09;;;;;;;8.45;7.70;;;5.40;97.20;;;;;;1674831;29;20217;-70
2022/11/06 06:41:01;;;;;;;10.50;8.43;;;5.40;97.20;;;;;;1674539;29;20229;-70
2022/11/06 06:41:52;;;;;;;9.05;8.27;;;5.40;97.20;;;;;;1674700;29;20270;-70
2022/11/06 06:42:44;;;;;;;9.13;8.23;;;5.40;97.20;;;;;;1674882;29;20201;-70
2022/11/06 06:43:35;;;;;;;8.55;7.60;;;5.40;97.20;;;;;;1674804;29;20241;-70
2022/11/06 06:44:27;;;;;;;9.32;8.38;;;5.40;97.20;;;;;;1674832;29;20523;-70
2022/11/06 06:45:18;;;;;;;8.35;7.65;;;5.40;97.20;;;;;;1674861;29;20210;-70
2022/11/06 06:46:10;;;;;;;7.93;7.23;;;5.40;97.20;;;;;;1674814;29;20209;-70
2022/11/06 06:47:00;;;;;;;8.07;7.35;;;5.40;97.20;;;;;;1674812;29;20224;-70
2022/11/06 06:47:54;;;;;;;8.27;7.57;;;5.50;97.20;;;;;;1674847;29;20209;-70
2022/11/06 06:48:44;;;;;;;8.38;7.57;;;5.50;97.20;;;;;;1674489;29;20222;-70
2022/11/06 06:49:36;;;;;;;8.83;8.03;;;5.50;97.20;;;;;;1674818;29;20208;-70
2022/11/06 06:50:27;;;;;;;8.70;7.90;;;5.50;97.20;;;;;;1674688;29;20214;-70
2022/11/06 06:51:18;;;;;;;8.00;7.30;;;5.50;97.20;;;;;;1674533;29;20216;-70
2022/11/06 06:52:10;;;;;;;9.95;8.25;;;5.50;97.20;;;;;;1674733;29;20261;-70
2022/11/06 06:53:01;;;;;;;7.93;7.22;;;5.50;97.20;;;;;;1674846;29;20206;-70
2022/11/06 06:53:52;;;;;;;8.60;7.80;;;5.50;97.20;;;;;;1674756;29;20217;-70
2022/11/06 06:54:44;;;;;;;8.33;7.60;;;5.50;97.20;;;;;;1674846;29;20212;-70
2022/11/06 06:55:34;;;;;;;8.10;7.40;;;5.50;97.20;;;;;;1674766;29;20210;-70
2022/11/06 06:56:26;;;;;;;8.70;7.70;;;5.60;97.20;;;;;;1674834;29;20203;-70
2022/11/06 06:57:17;;;;;;;8.80;7.70;;;5.60;97.20;;;;;;1674825;29;20673;-70
2022/11/06 06:58:09;;;;;;;8.57;7.87;;;5.60;97.20;;;;;;1674967;29;20665;-70
2022/11/06 06:59:00;;;;;;;8.20;7.38;;;5.60;97.20;;;;;;1674811;29;20554;-70
2022/11/06 06:59:52;;;;;;;8.70;7.90;;;5.60;97.20;;;;;;1674897;29;20642;-70
2022/11/06 07:00:42;;;;;;;9.00;8.20;;;5.60;97.20;;;;;;1674426;29;20236;-70
2022/11/06 07:01:34;;;;;;;12.80;11.40;;;5.60;97.20;;;;;;1674728;29;20216;-70
2022/11/06 07:02:25;;;;;;;15.38;13.57;;;5.60;97.20;;;;;;1674696;29;20214;-70
2022/11/06 07:03:18;;;;;;;15.40;12.80;;;5.60;97.20;;;;;;1674674;29;20198;-70
2022/11/06 07:04:09;;;;;;;18.35;16.35;;;5.60;97.20;;;;;;1674782;29;20221;-70
2022/11/06 07:05:01;;;;;;;19.15;15.80;;;5.60;97.20;;;;;;1674805;29;20284;-70
2022/11/06 07:05:52;;;;;;;16.42;14.10;;;5.60;97.20;;;;;;1674710;29;20214;-70
2022/11/06 07:06:44;;;;;;;20.20;14.87;;;5.70;97.20;;;;;;1674755;29;20684;-70
2022/11/06 07:07:34;;;;;;;15.15;13.50;;;5.70;97.20;;;;;;1674782;29;20206;-70
2022/11/06 07:08:27;;;;;;;13.50;12.10;;;5.70;97.20;;;;;;1674844;29;20210;-70
2022/11/06 07:09:17;;;;;;;14.23;12.80;;;5.70;97.20;;;;;;1674730;29;20206;-70
2022/11/06 07:10:09;;;;;;;15.77;13.23;;;5.80;97.20;;;;;;1674819;29;20210;-70
2022/11/06 07:11:01;;;;;;;18.50;15.43;;;5.80;97.20;;;;;;1674512;29;20229;-70
2022/11/06 07:11:52;;;;;;;20.27;15.20;;;5.80;97.20;;;;;;1674743;29;20687;-70
2022/11/06 07:12:43;;;;;;;21.88;17.45;;;5.80;97.20;;;;;;1674808;29;20213;-70
2022/11/06 07:13:35;;;;;;;25.77;18.40;;;5.80;97.20;;;;;;1674726;29;20209;-70
2022/11/06 07:14:26;;;;;;;25.48;20.15;;;5.80;97.20;;;;;;1674704;29;20465;-70
2022/11/06 07:15:18;;;;;;;24.03;20.00;;;5.80;97.20;;;;;;1674795;29;20205;-70
2022/11/06 07:16:10;;;;;;;12.73;11.38;;;5.80;97.20;;;;;;1674774;29;20210;-70
2022/11/06 07:17:01;;;;;;;11.75;10.65;;;5.80;97.20;;;;;;1674449;29;20213;-70
2022/11/06 07:17:53;;;;;;;15.50;11.00;;;5.90;97.20;;;;;;1674776;29;20692;-70
2022/11/06 07:18:45;;;;;;;10.25;9.45;;;5.90;97.20;;;;;;1674910;29;20217;-70
2022/11/06 07:19:37;;;;;;;11.20;10.20;;;5.90;97.20;;;;;;1674829;29;20684;-70
2022/11/06 07:20:27;;;;;;;10.88;9.98;;;5.90;97.20;;;;;;1674664;29;20205;-70
2022/11/06 07:21:19;;;;;;;9.87;9.00;;;5.90;97.20;;;;;;1675658;29;20209;-70
2022/11/06 07:22:10;;;;;;;10.75;9.70;;;5.80;97.20;;;;;;1675807;29;20708;-70
2022/11/06 07:23:05;;;;;;;10.40;9.50;;;5.80;97.20;;;;;;1676002;29;20684;-70
2022/11/06 07:23:56;;;;;;;11.88;10.70;;;5.80;97.20;;;;;;1675999;29;20214;-70
2022/11/06 07:24:48;;;;;;;10.70;9.70;;;5.80;97.20;;;;;;1675811;29;20210;-70
2022/11/06 07:25:39;;;;;;;10.45;9.45;;;5.80;97.20;;;;;;1676013;29;20205;-70
2022/11/06 07:26:30;;;;;;;10.63;9.73;;;5.80;97.20;;;;;;1675959;29;20206;-70
2022/11/06 07:27:21;;;;;;;10.85;9.73;;;5.80;97.20;;;;;;1675900;29;20210;-70
2022/11/06 07:28:13;;;;;;;10.47;9.50;;;5.90;97.20;;;;;;1675994;29;20216;-70
2022/11/06 07:29:03;;;;;;;10.32;9.50;;;5.90;97.20;;;;;;1675951;29;20210;-70
2022/11/06 07:29:55;;;;;;;9.10;8.30;;;5.90;97.20;;;;;;1675971;29;20210;-70
2022/11/06 07:30:46;;;;;;;9.15;8.13;;;5.90;97.20;;;;;;1675510;29;20245;-70
2022/11/06 07:31:37;;;;;;;10.20;9.30;;;5.90;97.20;;;;;;1675974;29;20212;-70
2022/11/06 07:32:29;;;;;;;10.80;9.90;;;5.90;97.20;;;;;;1675831;29;20206;-70
2022/11/06 07:33:20;;;;;;;10.48;9.57;;;5.90;97.20;;;;;;1675861;29;20198;-70
2022/11/06 07:34:13;;;;;;;8.80;8.00;;;5.90;97.20;;;;;;1675886;29;20206;-70
2022/11/06 07:35:05;;;;;;;9.27;8.48;;;5.90;97.20;;;;;;1675898;29;20213;-70
2022/11/06 07:36:01;;;;;;;8.93;8.23;;;5.90;97.20;;;;;;1675912;29;20680;-70
2022/11/06 07:36:53;;;;;;;8.48;7.68;;;5.90;97.20;;;;;;1675827;29;20646;-70
2022/11/06 07:37:44;;;;;;;9.07;8.18;;;5.90;97.20;;;;;;1676059;29;20206;-70
2022/11/06 07:38:36;;;;;;;9.17;8.37;;;5.90;97.20;;;;;;1675941;29;20202;-70
2022/11/06 07:39:27;;;;;;;8.50;7.70;;;5.90;97.20;;;;;;1675615;29;20206;-70
2022/11/06 07:40:18;;;;;;;8.20;7.50;;;5.90;97.20;;;;;;1675913;29;20500;-70
2022/11/06 07:41:10;;;;;;;9.05;8.25;;;5.90;97.20;;;;;;1675694;29;20210;-70
2022/11/06 07:42:02;;;;;;;8.63;7.85;;;5.80;97.20;;;;;;1675723;29;20233;-70
2022/11/06 07:42:53;;;;;;;9.00;8.27;;;5.80;97.20;;;;;;1675780;29;20241;-70
2022/11/06 07:43:45;;;;;;;8.60;7.87;;;5.80;97.20;;;;;;1675908;29;20198;-70
2022/11/06 07:44:35;;;;;;;10.00;9.10;;;5.80;97.20;;;;;;1675759;29;20210;-70
2022/11/06 07:45:27;;;;;;;9.53;8.60;;;5.80;97.20;;;;;;1675856;29;20198;-70
2022/11/06 07:46:18;;;;;;;11.45;9.70;;;5.80;97.20;;;;;;1675865;29;20205;-70
2022/11/06 07:47:09;;;;;;;9.63;8.83;;;5.80;97.20;;;;;;1675806;29;20308;-70
2022/11/06 07:48:00;;;;;;;12.50;10.05;;;5.80;97.20;;;;;;1675800;29;20217;-70
2022/11/06 07:48:53;;;;;;;14.25;10.38;;;5.80;97.20;;;;;;1675808;29;20631;-69
2022/11/06 07:49:45;;;;;;;11.02;10.10;;;5.80;97.20;;;;;;1675839;29;20597;-69
2022/11/06 07:50:37;;;;;;;10.85;9.95;;;5.80;97.20;;;;;;1675741;29;20289;-69
2022/11/06 07:51:28;;;;;;;9.82;8.93;;;5.80;97.20;;;;;;1675797;29;20206;-69
2022/11/06 07:52:19;;;;;;;42.70;9.50;;;5.80;97.20;;;;;;1675684;29;20206;-69
2022/11/06 07:53:10;;;;;;;13.40;9.00;;;5.90;97.20;;;;;;1675537;29;20216;-69
2022/11/06 07:54:02;;;;;;;14.90;9.50;;;5.90;97.20;;;;;;1675771;29;20216;-69
2022/11/06 07:54:52;;;;;;;10.65;9.75;;;5.90;97.20;;;;;;1675735;29;20217;-69
2022/11/06 07:55:49;;;;;;;13.73;11.03;;;5.90;97.20;;;;;;1675809;29;20205;-69
2022/11/06 07:56:39;;;;;;;16.02;10.30;;;5.90;97.20;;;;;;1675772;29;20694;-70
2022/11/06 07:57:35;;;;;;;13.80;9.53;;;5.90;97.20;;;;;;1675755;29;20214;-71
2022/11/06 07:58:27;;;;;;;16.48;10.25;;;5.90;97.20;;;;;;1675797;29;20210;-71
2022/11/06 07:59:18;;;;;;;23.80;9.63;;;5.90;97.20;;;;;;1675774;29;20209;-71
2022/11/06 08:00:11;;;;;;;19.25;11.52;;;6.00;97.20;;;;;;1675584;29;20221;-71
2022/11/06 08:01:03;;;;;;;17.90;10.50;;;6.00;97.20;;;;;;1675481;29;20665;-71
2022/11/06 08:01:54;;;;;;;18.10;13.10;;;5.90;97.20;;;;;;1675551;29;20206;-71
2022/11/06 08:02:45;;;;;;;17.30;11.50;;;5.90;97.20;;;;;;1675426;29;20208;-71
2022/11/06 08:03:36;;;;;;;32.05;16.40;;;5.90;97.20;;;;;;1675728;29;20213;-71
2022/11/06 08:04:28;;;;;;;16.30;14.73;;;5.90;97.20;;;;;;1675681;29;20206;-71
2022/11/06 08:05:20;;;;;;;15.88;14.18;;;5.90;97.20;;;;;;1675833;29;20217;-71
2022/11/06 08:06:12;;;;;;;16.95;11.88;;;5.80;97.20;;;;;;1675741;29;20210;-71
2022/11/06 08:07:02;;;;;;;29.58;13.05;;;5.90;97.20;;;;;;1675727;29;20206;-71
2022/11/06 08:07:56;;;;;;;18.87;11.13;;;5.80;97.20;;;;;;1675666;29;20216;-71
2022/11/06 08:08:47;;;;;;;15.27;11.20;;;5.80;97.20;;;;;;1675670;29;20202;-71
2022/11/06 08:09:39;;;;;;;20.13;10.87;;;5.80;97.20;;;;;;1675720;29;20261;-71
2022/11/06 08:10:30;;;;;;;24.98;11.20;;;5.80;97.20;;;;;;1675519;29;20825;-71
2022/11/06 08:11:21;;;;;;;67.77;12.57;;;5.80;97.20;;;;;;1675537;29;20206;-73
2022/11/06 08:12:13;;;;;;;36.53;10.52;;;5.80;97.20;;;;;;1675696;29;20952;-73
2022/11/06 08:13:05;;;;;;;31.55;10.07;;;5.80;97.20;;;;;;1675811;29;20751;-73
2022/11/06 08:13:58;;;;;;;10.57;8.32;;;5.80;97.20;;;;;;1675683;29;20210;-72
2022/11/06 08:14:50;;;;;;;25.20;10.05;;;5.80;97.20;;;;;;1675573;29;20227;-72
2022/11/06 08:15:41;;;;;;;36.17;11.43;;;5.80;97.20;;;;;;1675729;29;20248;-72
2022/11/06 08:16:33;;;;;;;15.27;10.00;;;5.80;97.20;;;;;;1675429;29;20580;-72
2022/11/06 08:17:23;;;;;;;28.17;10.68;;;5.80;97.20;;;;;;1675598;29;20257;-72
2022/11/06 08:18:15;;;;;;;39.43;10.20;;;5.80;97.20;;;;;;1675676;29;20214;-73
2022/11/06 08:19:07;;;;;;;19.80;8.63;;;5.80;97.20;;;;;;1675550;29;20232;-73
2022/11/06 08:19:57;;;;;;;13.45;9.55;;;5.90;97.20;;;;;;1675559;29;20694;-73
2022/11/06 08:20:52;;;;;;;31.63;9.70;;;5.90;97.20;;;;;;1675345;29;20595;-73
2022/11/06 08:21:43;;;;;;;11.85;10.20;;;5.90;97.20;;;;;;1675726;29;20202;-73
2022/11/06 08:22:35;;;;;;;12.83;11.53;;;5.90;97.20;;;;;;1675450;29;20237;-73
2022/11/06 08:23:26;;;;;;;16.30;10.60;;;6.00;97.20;;;;;;1675735;29;20212;-73
2022/11/06 08:24:18;;;;;;;16.90;11.43;;;6.00;97.20;;;;;;1675624;29;20337;-73
2022/11/06 08:25:09;;;;;;;9.95;8.95;;;6.00;97.20;;;;;;1675583;29;20672;-73
2022/11/06 08:26:03;;;;;;;17.50;7.57;;;6.10;97.20;;;;;;1675548;29;20209;-73
2022/11/06 08:26:53;;;;;;;11.82;7.25;;;6.10;97.20;;;;;;1675483;29;20205;-73
2022/11/06 08:27:45;;;;;;;7.53;6.93;;;6.10;97.20;;;;;;1675561;29;20221;-73
2022/11/06 08:28:36;;;;;;;12.52;7.00;;;6.20;97.20;;;;;;1675663;29;20226;-73
2022/11/06 08:29:27;;;;;;;20.80;7.30;;;6.20;97.20;;;;;;1675585;29;20727;-72
2022/11/06 08:30:18;;;;;;;7.63;6.88;;;6.20;97.20;;;;;;1675094;29;20217;-72
2022/11/06 08:31:10;;;;;;;24.87;7.83;;;6.30;97.20;;;;;;1675394;29;20216;-73
2022/11/06 08:32:01;;;;;;;20.83;7.65;;;6.30;97.20;;;;;;1675470;29;20292;-73
2022/11/06 08:32:52;;;;;;;11.57;7.50;;;6.30;97.20;;;;;;1675605;29;20213;-72
2022/11/06 08:33:44;;;;;;;8.25;7.30;;;6.30;97.20;;;;;;1675526;29;20205;-72
2022/11/06 08:34:35;;;;;;;7.28;6.68;;;6.40;97.20;;;;;;1675531;29;20210;-72
2022/11/06 08:35:27;;;;;;;8.20;7.50;;;6.40;97.20;;;;;;1675529;29;20206;-73
2022/11/06 08:36:19;;;;;;;8.00;7.30;;;6.50;97.20;;;;;;1675648;29;20606;-73
2022/11/06 08:37:11;;;;;;;12.63;8.82;;;6.50;97.20;;;;;;1675456;29;20213;-73
2022/11/06 08:38:02;;;;;;;11.40;10.40;;;6.60;97.20;;;;;;1675545;29;20218;-73
2022/11/06 08:38:54;;;;;;;10.10;9.20;;;6.70;97.20;;;;;;1675445;29;20213;-73
2022/11/06 08:39:45;;;;;;;22.60;20.70;;;6.80;97.20;;;;;;1675569;29;20214;-73
2022/11/06 08:40:38;;;;;;;23.67;21.80;;;6.90;97.20;;;;;;1675446;29;20317;-73
2022/11/06 08:41:28;;;;;;;21.17;19.40;;;7.00;97.20;;;;;;1675509;29;20216;-73
2022/11/06 08:42:20;;;;;;;18.80;17.40;;;7.10;97.20;;;;;;1675515;29;20229;-73
2022/11/06 08:43:11;;;;;;;12.27;11.07;;;7.20;97.20;;;;;;1675437;29;20214;-73
2022/11/06 08:44:03;;;;;;;10.80;9.80;;;7.30;97.20;;;;;;1675534;29;20206;-73
2022/11/06 08:44:53;;;;;;;10.35;8.20;;;7.50;97.20;;;;;;1675253;29;20213;-73
2022/11/06 08:45:45;;;;;;;10.20;9.33;;;7.60;97.20;;;;;;1675488;29;20202;-73
2022/11/06 08:46:37;;;;;;;10.52;9.63;;;7.70;97.20;;;;;;1675436;29;20209;-73
2022/11/06 08:47:27;;;;;;;10.63;9.73;;;7.80;97.20;;;;;;1675450;29;20563;-75
2022/11/06 08:48:19;;;;;;;10.00;9.10;;;7.80;97.20;;;;;;1675381;29;20573;-75
2022/11/06 08:49:10;;;;;;;8.98;8.27;;;7.90;97.20;;;;;;1675477;29;20212;-75
2022/11/06 08:50:02;;;;;;;7.70;7.00;;;8.00;97.20;;;;;;1675505;29;20212;-76
2022/11/06 08:50:52;;;;;;;7.93;7.22;;;8.10;97.20;;;;;;1675029;29;20237;-73
2022/11/06 08:51:45;;;;;;;8.33;7.67;;;8.20;97.20;;;;;;1675452;29;20210;-73
2022/11/06 08:52:36;;;;;;;8.57;7.78;;;8.30;97.20;;;;;;1675500;29;20206;-73
2022/11/06 08:53:28;;;;;;;8.47;7.67;;;8.40;97.20;;;;;;1675427;29;20684;-73
2022/11/06 08:54:19;;;;;;;8.23;7.53;;;8.50;97.20;;;;;;1675470;29;20206;-73
2022/11/06 08:55:10;;;;;;;8.03;7.33;;;8.60;97.20;;;;;;1675339;29;20216;-74
2022/11/06 08:56:02;;;;;;;8.02;7.32;;;8.70;97.20;;;;;;1675491;29;20206;-73
2022/11/06 08:56:53;;;;;;;7.82;7.13;;;8.80;97.20;;;;;;1675351;29;20209;-74
2022/11/06 08:57:44;;;;;;;8.27;7.53;;;8.90;97.20;;;;;;1675521;29;20202;-74
2022/11/06 08:58:36;;;;;;;8.70;8.00;;;8.90;97.20;;;;;;1675180;29;20206;-74
2022/11/06 08:59:27;;;;;;;8.45;7.70;;;9.00;97.20;;;;;;1675322;29;20214;-73
2022/11/06 09:00:19;;;;;;;8.20;7.53;;;9.00;97.20;;;;;;1675445;29;20206;-74
2022/11/06 09:01:09;;;;;;;8.38;7.68;;;9.10;97.20;;;;;;1675070;29;20669;-73
2022/11/06 09:02:01;;;;;;;7.97;7.33;;;9.10;97.20;;;;;;1675331;29;20581;-73
2022/11/06 09:02:57;;;;;;;7.60;6.95;;;9.20;97.20;;;;;;1675273;29;20210;-73
2022/11/06 09:03:49;;;;;;;9.23;8.35;;;9.30;97.20;;;;;;1675372;29;20202;-74
2022/11/06 09:04:40;;;;;;;8.50;7.70;;;9.40;97.20;;;;;;1675376;29;20210;-74
2022/11/06 09:05:32;;;;;;;8.82;8.02;;;9.50;97.20;;;;;;1675299;29;20210;-73
2022/11/06 09:06:22;;;;;;;8.07;7.40;;;9.50;97.20;;;;;;1675408;29;20217;-74
2022/11/06 09:07:16;;;;;;;8.03;7.23;;;9.60;97.20;;;;;;1675264;29;20209;-74
2022/11/06 09:08:08;;;;;;;8.45;7.75;;;9.80;97.20;;;;;;1675362;29;20684;-73
2022/11/06 09:08:59;;;;;;;8.10;7.40;;;9.90;97.20;;;;;;1675480;29;20600;-74
2022/11/06 09:09:50;;;;;;;9.02;8.23;;;10.00;97.20;;;;;;1675363;29;20205;-75
2022/11/06 09:10:43;;;;;;;9.37;8.57;;;10.20;97.20;;;;;;1675087;29;20221;-74
2022/11/06 09:11:34;;;;;;;9.95;9.05;;;10.30;97.20;;;;;;1677909;29;20212;-75
2022/11/06 09:12:26;;;;;;;9.17;8.27;;;10.50;97.20;;;;;;1680411;29;20288;-74
2022/11/06 09:13:17;;;;;;;9.13;8.38;;;10.60;97.20;;;;;;1675405;29;20450;-73
2022/11/06 09:14:09;;;;;;;8.40;7.70;;;10.80;97.20;;;;;;1675349;29;20216;-73
2022/11/06 09:15:00;;;;;;;8.85;8.10;;;10.90;97.20;;;;;;1675363;29;20221;-74
2022/11/06 09:15:51;;;;;;;8.40;7.60;;;11.10;97.20;;;;;;1675290;29;20230;-75
2022/11/06 09:16:42;;;;;;;8.48;7.78;;;11.20;97.20;;;;;;1675273;29;20217;-76
2022/11/06 09:17:34;;;;;;;7.43;6.80;;;11.30;97.20;;;;;;1675342;29;20205;-76
2022/11/06 09:18:25;;;;;;;8.20;7.40;;;11.40;97.20;;;;;;1675552;29;20229;-74
2022/11/06 09:19:16;;;;;;;8.20;6.57;;;11.50;97.20;;;;;;1673900;29;20220;-74
2022/11/06 09:20:08;;;;;;;8.30;7.50;;;11.60;97.20;;;;;;1668856;29;20459;-76
2022/11/06 09:21:00;;;;;;;7.43;6.75;;;11.70;97.20;;;;;;1671979;29;20575;-75
2022/11/06 09:21:51;;;;;;;7.30;6.70;;;11.80;97.20;;;;;;1675305;29;20209;-76
2022/11/06 09:22:44;;;;;;;7.97;7.27;;;11.90;97.20;;;;;;1675231;29;20226;-74
2022/11/06 09:23:35;;;;;;;7.40;6.78;;;11.90;97.20;;;;;;1675388;29;20209;-75
2022/11/06 09:24:27;;;;;;;7.03;6.43;;;12.00;97.20;;;;;;1675343;29;20205;-75
2022/11/06 09:25:18;;;;;;;7.25;6.65;;;12.00;97.20;;;;;;1675347;29;20446;-74
2022/11/06 09:26:10;;;;;;;7.40;6.80;;;12.00;97.20;;;;;;1675269;29;20213;-74
2022/11/06 09:27:00;;;;;;;8.50;7.60;;;12.10;97.20;;;;;;1675174;29;20233;-74
2022/11/06 09:27:53;;;;;;;8.00;7.30;;;12.00;97.20;;;;;;1675330;29;20202;-74
2022/11/06 09:28:45;;;;;;;9.35;8.50;;;12.10;97.20;;;;;;1675353;29;20221;-74
2022/11/06 09:29:39;;;;;;;9.48;8.68;;;12.10;97.20;;;;;;1675236;29;20289;-72
2022/11/06 09:30:31;;;;;;;7.57;6.88;;;12.10;97.20;;;;;;1674988;29;20210;-72
2022/11/06 09:31:22;;;;;;;7.93;7.30;;;12.20;97.20;;;;;;1675070;29;20227;-72
2022/11/06 09:32:13;;;;;;;8.52;7.15;;;12.20;97.20;;;;;;1675025;29;20221;-71
2022/11/06 09:33:05;;;;;;;8.40;7.60;;;12.20;97.20;;;;;;1675264;29;20212;-73
2022/11/06 09:33:56;;;;;;;8.00;7.30;;;12.30;97.20;;;;;;1675178;29;20217;-72
2022/11/06 09:34:47;;;;;;;8.47;7.67;;;12.30;97.20;;;;;;1675313;29;20245;-73
2022/11/06 09:35:38;;;;;;;7.13;6.50;;;12.30;97.20;;;;;;1675137;29;20209;-72
2022/11/06 09:36:30;;;;;;;7.63;6.93;;;12.40;97.20;;;;;;1675208;29;20205;-72
2022/11/06 09:37:21;;;;;;;10.10;7.43;;;12.40;97.20;;;;;;1675034;29;20261;-72
2022/11/06 09:38:15;;;;;;;14.50;12.90;;;12.50;97.20;;;;;;1675179;29;20258;-73
2022/11/06 09:39:06;;;;;;;12.63;11.32;;;12.50;97.20;;;;;;1675127;29;20206;-72
2022/11/06 09:39:57;;;;;;;14.97;13.00;;;12.50;97.20;;;;;;1675094;29;20257;-73
2022/11/06 09:40:51;;;;;;;17.77;16.08;;;12.50;97.20;;;;;;1674842;29;20244;-73
2022/11/06 09:41:51;;;;;;;16.30;14.70;;;12.50;97.20;;;;;;1675146;29;20233;-73
2022/11/06 09:42:54;;;;;;;13.45;11.98;;;12.60;97.20;;;;;;1675021;29;20226;-73
2022/11/06 09:44:03;;;;;;;10.88;9.98;;;12.60;97.20;;;;;;1674739;29;20277;-73
2022/11/06 09:45:02;;;;;;;7.60;7.00;;;12.70;97.20;;;;;;1675130;29;20210;-73
2022/11/06 09:45:55;;;;;;;7.97;7.28;;;12.70;97.20;;;;;;1674214;29;20210;-73
2022/11/06 09:46:46;;;;;;;7.32;6.63;;;12.60;97.20;;;;;;1675032;29;20302;-73
2022/11/06 09:47:43;;;;;;;8.40;7.60;;;12.60;97.20;;;;;;1675076;29;20221;-71
2022/11/06 09:48:38;;;;;;;7.82;6.50;;;12.60;97.20;;;;;;1675122;29;20206;-72
2022/11/06 09:49:35;;;;;;;6.40;5.80;;;12.70;97.20;;;;;;1675150;29;20213;-73
2022/11/06 09:50:29;;;;;;;6.78;6.18;;;12.70;97.20;;;;;;1675151;29;20218;-73
2022/11/06 09:51:33;;;;;;;7.03;6.32;;;12.80;97.20;;;;;;1674915;29;20688;-73
2022/11/06 09:52:35;;;;;;;6.20;5.70;;;12.90;97.20;;;;;;1675133;29;20246;-73
2022/11/06 09:53:32;;;;;;;6.28;5.68;;;12.90;97.20;;;;;;1675124;29;20210;-73
2022/11/06 09:54:28;;;;;;;7.30;6.60;;;13.00;97.20;;;;;;1675217;29;20214;-73
2022/11/06 09:55:23;;;;;;;6.57;5.97;;;13.10;97.20;;;;;;1675197;29;20583;-75
2022/11/06 09:56:18;;;;;;;5.75;5.25;;;13.10;97.20;;;;;;1675126;29;20201;-73
2022/11/06 09:57:14;;;;;;;5.78;5.28;;;13.20;97.20;;;;;;1675040;29;20213;-73
2022/11/06 09:58:13;;;;;;;6.40;5.90;;;13.30;97.20;;;;;;1675095;29;20214;-72
2022/11/06 09:59:09;;;;;;;6.30;5.75;;;13.40;97.20;;;;;;1675148;29;20601;-73
2022/11/06 10:00:04;;;;;;;5.75;5.25;;;13.50;97.20;;;;;;1675160;29;20584;-73
2022/11/06 10:00:54;;;;;;;5.85;5.13;;;13.50;97.20;;;;;;1674765;29;20234;-71
2022/11/06 10:01:49;;;;;;;5.97;5.47;;;13.50;97.20;;;;;;1675287;29;20206;-72
2022/11/06 10:02:45;;;;;;;5.45;4.95;;;13.60;97.20;;;;;;1674943;29;20954;-73
2022/11/06 10:03:44;;;;;;;5.78;5.28;;;13.50;97.20;;;;;;1675077;29;20240;-71
2022/11/06 10:04:41;;;;;;;6.20;5.60;;;13.60;97.20;;;;;;1675043;29;20198;-71
2022/11/06 10:05:34;;;;;;;5.65;5.15;;;13.70;97.20;;;;;;1675062;29;20222;-73
2022/11/06 10:06:28;;;;;;;5.40;4.47;;;13.80;97.20;;;;;;1675124;29;20285;-73
2022/11/06 10:07:26;;;;;;;4.78;4.38;;;13.90;97.20;;;;;;1674969;29;20225;-72
2022/11/06 10:08:22;;;;;;;4.70;4.30;;;13.90;97.20;;;;;;1675037;29;20212;-75
2022/11/06 10:09:16;;;;;;;4.60;4.20;;;13.90;97.20;;;;;;1675255;29;20229;-75
2022/11/06 10:10:14;;;;;;;4.60;4.30;;;13.90;97.20;;;;;;1674959;29;20362;-72
2022/11/06 10:11:12;;;;;;;7.90;5.53;;;13.90;97.20;;;;;;1674892;29;20241;-71
2022/11/06 10:12:14;;;;;;;5.20;4.70;;;13.90;97.20;;;;;;1680893;29;20205;-72
2022/11/06 10:13:17;;;;;;;5.85;5.35;;;14.00;97.20;;;;;;1681414;29;20210;-72
2022/11/06 10:14:24;;;;;;;5.07;4.65;;;14.00;97.20;;;;;;1668658;29;20234;-72
2022/11/06 10:15:23;;;;;;;3.95;3.65;;;14.00;97.20;;;;;;1670683;29;20210;-71
2022/11/06 10:16:23;;;;;;;4.82;4.43;;;14.10;97.20;;;;;;1674681;29;20255;-71
2022/11/06 10:17:25;;;;;;;5.10;4.60;;;14.10;97.20;;;;;;1674554;29;20217;-72
2022/11/06 10:18:28;;;;;;;6.45;5.85;;;14.10;97.20;;;;;;1674535;29;20333;-73
2022/11/06 10:19:24;;;;;;;5.68;5.18;;;14.10;97.20;;;;;;1674969;29;20255;-73
2022/11/06 10:20:20;;;;;;;5.80;5.28;;;14.10;97.20;;;;;;1674957;29;20210;-71
2022/11/06 10:21:20;;;;;;;6.05;5.45;;;14.10;97.20;;;;;;1674688;29;20210;-72
2022/11/06 10:22:15;;;;;;;5.70;5.20;;;14.10;97.20;;;;;;1674948;29;20206;-71
2022/11/06 10:23:18;;;;;;;6.55;5.85;;;14.20;97.20;;;;;;1674533;29;20230;-71
2022/11/06 10:24:21;;;;;;;6.20;5.60;;;14.30;97.20;;;;;;1674994;29;20254;-71
2022/11/06 10:25:18;;;;;;;6.00;5.47;;;14.30;97.20;;;;;;1674939;29;20214;-72
2022/11/06 10:26:14;;;;;;;6.28;5.68;;;14.40;97.20;;;;;;1674961;29;20212;-71
2022/11/06 10:27:14;;;;;;;6.10;5.60;;;14.50;97.20;;;;;;1674959;29;20217;-71
2022/11/06 10:28:22;;;;;;;4.30;3.90;;;14.60;97.20;;;;;;1674969;29;20205;-71
2022/11/06 10:29:34;;;;;;;5.03;4.47;;;14.60;97.20;;;;;;1674948;29;20214;-70
2022/11/06 10:30:33;;;;;;;5.22;4.82;;;14.60;97.20;;;;;;1674758;29;20217;-71
2022/11/06 10:31:34;;;;;;;5.20;3.92;;;14.60;97.20;;;;;;1674625;29;20209;-70
2022/11/06 10:33:01;;;;;;;5.20;4.70;;;14.60;97.20;;;;;;1674670;29;20221;-71
2022/11/06 10:33:57;;;;;;;4.72;4.32;;;14.60;97.20;;;;;;1674028;29;20310;-71
2022/11/06 10:34:52;;;;;;;5.38;4.88;;;14.60;97.20;;;;;;1674326;29;20206;-70
2022/11/06 10:35:48;;;;;;;4.80;4.30;;;14.60;97.20;;;;;;1675057;29;20202;-70
2022/11/06 10:36:45;;;;;;;5.68;4.00;;;14.70;97.20;;;;;;1674823;29;20481;-71
2022/11/06 10:37:43;;;;;;;4.30;4.00;;;14.70;97.20;;;;;;1674896;29;20563;-70